createdAt,value
2017-05-30T00:00:51.359Z,63.70
2017-05-30T00:01:52.736Z,63.60
2017-05-30T00:02:54.112Z,64.05
2017-05-30T00:03:55.478Z,64.34
2017-05-30T00:04:56.850Z,64.72
2017-05-30T00:05:58.251Z,64.43
2017-05-30T00:06:59.643Z,64.43
2017-05-30T00:08:01.012Z,64.63
2017-05-30T00:09:02.377Z,64.24
2017-05-30T00:10:03.755Z,64.72
2017-05-30T00:11:05.139Z,64.53
2017-05-30T00:12:06.501Z,64.82
2017-05-30T00:13:07.866Z,64.53
2017-05-30T00:14:09.260Z,64.34
2017-05-30T00:15:10.626Z,64.63
2017-05-30T00:16:11.990Z,64.82
2017-05-30T00:17:13.357Z,64.82
2017-05-30T00:18:14.867Z,64.63
2017-05-30T00:19:16.244Z,64.53
2017-05-30T00:20:17.623Z,64.92
2017-05-30T00:21:19.126Z,65.11
2017-05-30T00:22:20.495Z,65.20
2017-05-30T00:23:21.872Z,64.92
2017-05-30T00:24:23.247Z,65.30
2017-05-30T00:25:24.618Z,65.01
2017-05-30T00:26:26.029Z,65.01
2017-05-30T00:27:27.409Z,64.92
2017-05-30T00:28:28.799Z,65.01
2017-05-30T00:29:30.160Z,65.20
2017-05-30T00:30:31.538Z,64.82
2017-05-30T00:31:32.899Z,64.92
2017-05-30T00:32:34.276Z,65.01
2017-05-30T00:33:35.717Z,65.01
2017-05-30T00:34:37.137Z,64.72
2017-05-30T00:35:38.518Z,65.01
2017-05-30T00:36:39.885Z,65.01
2017-05-30T00:37:41.248Z,64.82
2017-05-30T00:38:42.718Z,64.92
2017-05-30T00:39:44.110Z,65.01
2017-05-30T00:40:45.466Z,64.92
2017-05-30T00:41:46.829Z,64.72
2017-05-30T00:42:48.239Z,64.92
2017-05-30T00:43:49.610Z,65.01
2017-05-30T00:44:50.970Z,65.11
2017-05-30T00:45:52.337Z,65.78
2017-05-30T00:46:53.702Z,65.30
2017-05-30T00:47:55.072Z,65.59
2017-05-30T00:48:56.455Z,65.50
2017-05-30T00:49:57.818Z,65.69
2017-05-30T00:50:59.220Z,65.59
2017-05-30T00:52:00.597Z,65.59
2017-05-30T00:53:01.978Z,65.59
2017-05-30T00:54:03.351Z,65.78
2017-05-30T00:55:04.801Z,65.69
2017-05-30T00:56:06.175Z,65.40
2017-05-30T00:57:07.537Z,65.59
2017-05-30T00:58:08.908Z,65.69
2017-05-30T00:59:10.311Z,65.69
2017-05-30T01:00:11.712Z,65.59
2017-05-30T01:01:13.116Z,65.50
2017-05-30T01:02:14.542Z,65.40
2017-05-30T01:03:16.606Z,65.40
2017-05-30T01:04:17.975Z,65.50
2017-05-30T01:05:19.366Z,65.30
2017-05-30T01:06:20.738Z,65.30
2017-05-30T01:07:22.116Z,65.30
2017-05-30T01:08:23.484Z,65.98
2017-05-30T01:09:24.855Z,65.59
2017-05-30T01:10:26.228Z,65.69
2017-05-30T01:11:27.591Z,65.59
2017-05-30T01:12:28.981Z,65.88
2017-05-30T01:13:30.375Z,65.69
2017-05-30T01:14:31.749Z,66.24
2017-05-30T01:15:33.122Z,67.10
2017-05-30T01:16:34.518Z,67.20
2017-05-30T01:17:35.893Z,66.46
2017-05-30T01:18:37.281Z,66.91
2017-05-30T01:19:38.641Z,67.20
2017-05-30T01:20:40.006Z,67.30
2017-05-30T01:21:41.371Z,67.40
2017-05-30T01:22:42.775Z,67.10
2017-05-30T01:23:44.262Z,66.72
2017-05-30T01:24:45.626Z,67.00
2017-05-30T01:25:46.991Z,66.82
2017-05-30T01:26:48.385Z,66.94
2017-05-30T01:27:49.774Z,67.23
2017-05-30T01:28:51.148Z,67.30
2017-05-30T01:29:52.550Z,66.82
2017-05-30T01:30:53.940Z,67.10
2017-05-30T01:31:55.306Z,67.58
2017-05-30T01:32:56.675Z,67.10
2017-05-30T01:33:58.134Z,67.49
2017-05-30T01:34:59.487Z,67.40
2017-05-30T01:36:00.856Z,67.10
2017-05-30T01:37:02.223Z,67.40
2017-05-30T01:38:03.588Z,67.10
2017-05-30T01:39:04.971Z,67.40
2017-05-30T01:40:06.387Z,67.78
2017-05-30T01:41:07.761Z,67.30
2017-05-30T01:42:09.131Z,68.26
2017-05-30T01:43:10.670Z,67.30
2017-05-30T01:44:12.050Z,67.88
2017-05-30T01:45:13.434Z,67.97
2017-05-30T01:46:14.803Z,68.26
2017-05-30T01:47:16.813Z,67.78
2017-05-30T01:48:18.213Z,68.16
2017-05-30T01:49:19.627Z,67.97
2017-05-30T01:50:21.009Z,67.97
2017-05-30T01:51:22.425Z,67.88
2017-05-30T01:52:23.837Z,67.88
2017-05-30T01:53:25.315Z,68.26
2017-05-30T01:54:26.680Z,67.88
2017-05-30T01:55:28.053Z,68.07
2017-05-30T01:56:29.419Z,68.07
2017-05-30T01:57:30.837Z,68.35
2017-05-30T01:58:32.215Z,68.45
2017-05-30T01:59:33.584Z,67.97
2017-05-30T02:00:34.951Z,68.16
2017-05-30T02:01:36.312Z,67.97
2017-05-30T02:02:37.681Z,67.74
2017-05-30T02:03:39.072Z,68.52
2017-05-30T02:04:40.459Z,68.61
2017-05-30T02:05:41.836Z,68.71
2017-05-30T02:06:43.205Z,68.61
2017-05-30T02:07:44.600Z,68.42
2017-05-30T02:08:45.968Z,68.61
2017-05-30T02:09:47.347Z,68.61
2017-05-30T02:10:48.712Z,68.52
2017-05-30T02:11:50.080Z,68.80
2017-05-30T02:12:51.449Z,68.61
2017-05-30T02:13:52.856Z,68.80
2017-05-30T02:14:54.249Z,68.13
2017-05-30T02:15:55.620Z,68.61
2017-05-30T02:16:56.991Z,68.80
2017-05-30T02:17:58.354Z,68.71
2017-05-30T02:18:59.742Z,68.42
2017-05-30T02:20:01.115Z,68.71
2017-05-30T02:21:02.483Z,68.71
2017-05-30T02:22:03.919Z,68.80
2017-05-30T02:23:05.290Z,68.32
2017-05-30T02:24:06.666Z,68.71
2017-05-30T02:25:08.074Z,68.52
2017-05-30T02:26:09.440Z,68.42
2017-05-30T02:27:10.805Z,68.42
2017-05-30T02:28:12.180Z,68.61
2017-05-30T02:29:13.554Z,68.99
2017-05-30T02:30:14.919Z,69.09
2017-05-30T02:31:16.297Z,69.19
2017-05-30T02:32:17.664Z,69.29
2017-05-30T02:33:19.023Z,69.09
2017-05-30T02:34:20.443Z,69.48
2017-05-30T02:35:21.806Z,69.48
2017-05-30T02:36:23.196Z,69.57
2017-05-30T02:37:24.595Z,69.48
2017-05-30T02:38:25.974Z,69.48
2017-05-30T02:39:27.389Z,69.29
2017-05-30T02:40:28.765Z,69.67
2017-05-30T02:41:30.222Z,69.19
2017-05-30T02:42:31.599Z,69.19
2017-05-30T02:43:32.971Z,69.29
2017-05-30T02:44:34.337Z,69.77
2017-05-30T02:45:35.732Z,69.67
2017-05-30T02:46:37.107Z,70.12
2017-05-30T02:47:38.472Z,69.67
2017-05-30T02:48:39.864Z,70.06
2017-05-30T02:49:41.234Z,69.96
2017-05-30T02:50:42.603Z,69.96
2017-05-30T02:51:43.987Z,70.06
2017-05-30T02:52:45.349Z,69.87
2017-05-30T02:53:46.730Z,70.06
2017-05-30T02:54:48.131Z,69.96
2017-05-30T02:55:49.512Z,70.06
2017-05-30T02:56:50.879Z,69.87
2017-05-30T02:57:52.262Z,69.96
2017-05-30T02:58:53.631Z,69.87
2017-05-30T02:59:54.995Z,70.25
2017-05-30T03:00:56.359Z,70.50
2017-05-30T03:01:57.772Z,70.60
2017-05-30T03:02:59.143Z,70.60
2017-05-30T03:04:00.511Z,70.60
2017-05-30T03:05:01.946Z,69.87
2017-05-30T03:06:03.322Z,70.15
2017-05-30T03:07:04.703Z,70.25
2017-05-30T03:08:06.089Z,70.35
2017-05-30T03:09:07.523Z,69.93
2017-05-30T03:10:08.922Z,69.96
2017-05-30T03:11:10.352Z,70.15
2017-05-30T03:12:11.729Z,70.12
2017-05-30T03:13:13.100Z,70.12
2017-05-30T03:14:14.492Z,69.96
2017-05-30T03:15:15.843Z,69.77
2017-05-30T03:16:17.209Z,70.35
2017-05-30T03:17:18.577Z,70.15
2017-05-30T03:18:20.005Z,70.25
2017-05-30T03:19:21.390Z,70.35
2017-05-30T03:20:22.758Z,70.35
2017-05-30T03:21:24.127Z,70.15
2017-05-30T03:22:25.596Z,70.15
2017-05-30T03:23:26.969Z,70.12
2017-05-30T03:24:28.371Z,70.25
2017-05-30T03:25:29.743Z,70.12
2017-05-30T03:26:31.640Z,70.06
2017-05-30T03:27:33.022Z,70.44
2017-05-30T03:28:34.447Z,70.06
2017-05-30T03:29:35.888Z,69.96
2017-05-30T03:30:37.272Z,69.96
2017-05-30T03:31:38.649Z,70.15
2017-05-30T03:32:40.031Z,70.35
2017-05-30T03:33:41.458Z,70.35
2017-05-30T03:34:42.878Z,70.25
2017-05-30T03:35:44.259Z,70.06
2017-05-30T03:36:45.648Z,69.67
2017-05-30T03:37:47.073Z,70.06
2017-05-30T03:38:48.457Z,70.35
2017-05-30T03:39:50.678Z,70.35
2017-05-30T03:40:52.070Z,70.15
2017-05-30T03:41:53.513Z,70.25
2017-05-30T03:42:54.891Z,70.25
2017-05-30T03:43:56.353Z,70.15
2017-05-30T03:44:57.768Z,70.44
2017-05-30T03:45:59.155Z,70.64
2017-05-30T03:47:00.527Z,70.83
2017-05-30T03:48:01.902Z,70.54
2017-05-30T03:49:03.283Z,70.54
2017-05-30T03:50:04.665Z,70.64
2017-05-30T03:51:06.051Z,70.25
2017-05-30T03:52:07.419Z,70.25
2017-05-30T03:53:08.822Z,69.96
2017-05-30T03:54:10.209Z,70.54
2017-05-30T03:55:11.591Z,70.15
2017-05-30T03:56:12.966Z,70.25
2017-05-30T03:57:14.579Z,70.64
2017-05-30T03:58:15.951Z,70.54
2017-05-30T03:59:17.320Z,70.54
2017-05-30T04:00:18.694Z,70.54
2017-05-30T04:01:20.331Z,70.35
2017-05-30T04:02:21.660Z,70.25
2017-05-30T04:03:23.023Z,70.25
2017-05-30T04:04:24.394Z,69.96
2017-05-30T04:05:25.760Z,70.25
2017-05-30T04:06:27.134Z,69.96
2017-05-30T04:07:28.513Z,70.06
2017-05-30T04:08:29.891Z,70.15
2017-05-30T04:09:31.279Z,69.87
2017-05-30T04:10:32.657Z,70.15
2017-05-30T04:11:34.028Z,69.87
2017-05-30T04:12:35.397Z,70.15
2017-05-30T04:13:36.811Z,69.96
2017-05-30T04:14:38.178Z,69.57
2017-05-30T04:15:40.148Z,69.87
2017-05-30T04:16:41.523Z,69.67
2017-05-30T04:17:42.892Z,69.29
2017-05-30T04:18:44.254Z,69.48
2017-05-30T04:19:45.646Z,69.03
2017-05-30T04:20:47.020Z,69.23
2017-05-30T04:21:48.390Z,69.29
2017-05-30T04:22:49.778Z,69.32
2017-05-30T04:23:51.199Z,69.32
2017-05-30T04:24:52.562Z,69.51
2017-05-30T04:25:53.930Z,69.48
2017-05-30T04:26:55.307Z,69.13
2017-05-30T04:27:56.680Z,69.13
2017-05-30T04:28:58.047Z,69.13
2017-05-30T04:29:59.429Z,69.32
2017-05-30T04:31:00.799Z,69.13
2017-05-30T04:32:02.186Z,69.32
2017-05-30T04:33:04.920Z,69.51
2017-05-30T04:34:06.353Z,69.32
2017-05-30T04:35:07.758Z,69.71
2017-05-30T04:36:09.380Z,69.13
2017-05-30T04:37:10.763Z,69.13
2017-05-30T04:38:12.139Z,69.32
2017-05-30T04:39:13.530Z,69.61
2017-05-30T04:40:14.903Z,69.61
2017-05-30T04:41:16.277Z,69.51
2017-05-30T04:42:17.654Z,70.09
2017-05-30T04:43:19.087Z,70.19
2017-05-30T04:44:20.450Z,70.28
2017-05-30T04:45:21.832Z,70.48
2017-05-30T04:46:23.197Z,70.38
2017-05-30T04:47:24.641Z,70.48
2017-05-30T04:48:26.021Z,69.80
2017-05-30T04:49:27.395Z,70.00
2017-05-30T04:50:28.782Z,69.90
2017-05-30T04:51:31.659Z,69.32
2017-05-30T04:52:33.034Z,69.23
2017-05-30T04:53:34.415Z,69.42
2017-05-30T04:54:35.780Z,70.09
2017-05-30T04:55:37.147Z,69.51
2017-05-30T04:56:38.523Z,69.51
2017-05-30T04:57:39.893Z,69.13
2017-05-30T04:58:41.275Z,69.03
2017-05-30T04:59:42.653Z,69.35
2017-05-30T05:00:44.036Z,69.03
2017-05-30T05:01:45.393Z,68.97
2017-05-30T05:02:46.812Z,68.77
2017-05-30T05:03:48.379Z,69.07
2017-05-30T05:04:49.793Z,68.68
2017-05-30T05:05:51.195Z,69.07
2017-05-30T05:06:52.600Z,69.35
2017-05-30T05:07:55.677Z,68.77
2017-05-30T05:08:57.248Z,68.29
2017-05-30T05:09:58.610Z,68.77
2017-05-30T05:10:59.977Z,68.01
2017-05-30T05:12:01.345Z,68.29
2017-05-30T05:13:02.784Z,68.19
2017-05-30T05:14:04.672Z,68.10
2017-05-30T05:15:06.045Z,68.59
2017-05-30T05:16:07.421Z,68.01
2017-05-30T05:17:08.789Z,67.62
2017-05-30T05:18:10.163Z,67.81
2017-05-30T05:19:11.536Z,67.91
2017-05-30T05:20:12.907Z,67.81
2017-05-30T05:21:14.339Z,68.68
2017-05-30T05:22:15.720Z,68.59
2017-05-30T05:23:17.089Z,67.81
2017-05-30T05:24:18.472Z,68.87
2017-05-30T05:25:19.882Z,68.87
2017-05-30T05:26:22.167Z,69.16
2017-05-30T05:27:23.540Z,68.49
2017-05-30T05:28:24.976Z,68.01
2017-05-30T05:29:26.371Z,68.04
2017-05-30T05:30:27.755Z,68.19
2017-05-30T05:31:29.127Z,67.94
2017-05-30T05:32:30.499Z,67.27
2017-05-30T05:33:31.876Z,67.46
2017-05-30T05:34:33.254Z,67.07
2017-05-30T05:35:34.624Z,67.55
2017-05-30T05:36:36.001Z,68.23
2017-05-30T05:37:37.371Z,68.04
2017-05-30T05:38:38.748Z,68.33
2017-05-30T05:39:40.118Z,68.33
2017-05-30T05:40:41.492Z,68.04
2017-05-30T05:41:42.874Z,68.04
2017-05-30T05:42:44.305Z,68.71
2017-05-30T05:43:45.676Z,68.59
2017-05-30T05:44:47.045Z,68.71
2017-05-30T05:45:48.421Z,68.23
2017-05-30T05:46:49.795Z,68.13
2017-05-30T05:47:51.241Z,68.23
2017-05-30T05:48:52.623Z,67.94
2017-05-30T05:49:54.001Z,67.65
2017-05-30T05:50:55.374Z,67.46
2017-05-30T05:51:56.755Z,67.55
2017-05-30T05:52:58.177Z,67.27
2017-05-30T05:53:59.580Z,67.65
2017-05-30T05:55:00.951Z,67.65
2017-05-30T05:56:02.330Z,67.17
2017-05-30T05:57:03.706Z,66.97
2017-05-30T05:58:05.189Z,67.27
2017-05-30T05:59:06.575Z,66.69
2017-05-30T06:00:07.942Z,67.17
2017-05-30T06:01:09.314Z,66.40
2017-05-30T06:02:10.697Z,66.20
2017-05-30T06:03:12.076Z,66.30
2017-05-30T06:04:13.458Z,66.49
2017-05-30T06:05:14.872Z,65.72
2017-05-30T06:06:16.246Z,65.91
2017-05-30T06:07:17.622Z,65.72
2017-05-30T06:08:18.989Z,65.53
2017-05-30T06:09:20.369Z,65.66
2017-05-30T06:10:22.679Z,65.17
2017-05-30T06:11:24.069Z,65.17
2017-05-30T06:12:25.443Z,64.69
2017-05-30T06:13:26.821Z,64.69
2017-05-30T06:14:28.192Z,64.11
2017-05-30T06:15:29.573Z,64.31
2017-05-30T06:16:30.950Z,64.40
2017-05-30T06:17:32.326Z,64.11
2017-05-30T06:18:33.707Z,64.11
2017-05-30T06:19:35.078Z,64.31
2017-05-30T06:20:36.473Z,64.21
2017-05-30T06:21:38.689Z,63.92
2017-05-30T06:22:40.096Z,63.47
2017-05-30T06:23:41.582Z,63.63
2017-05-30T06:24:42.963Z,63.34
2017-05-30T06:25:44.331Z,63.28
2017-05-30T06:26:45.704Z,63.56
2017-05-30T06:27:47.084Z,63.47
2017-05-30T06:28:48.474Z,63.08
2017-05-30T06:29:49.861Z,62.98
2017-05-30T06:30:51.228Z,62.50
2017-05-30T06:31:52.605Z,62.50
2017-05-30T06:32:53.983Z,62.70
2017-05-30T06:33:55.355Z,62.60
2017-05-30T06:34:56.819Z,62.40
2017-05-30T06:35:58.195Z,62.21
2017-05-30T06:36:59.572Z,62.31
2017-05-30T06:38:01.738Z,62.40
2017-05-30T06:39:03.111Z,62.31
2017-05-30T06:40:04.489Z,62.31
2017-05-30T06:41:05.878Z,62.31
2017-05-30T06:42:08.192Z,62.21
2017-05-30T06:43:10.245Z,61.92
2017-05-30T06:44:11.634Z,61.57
2017-05-30T06:45:13.699Z,61.18
2017-05-30T06:46:15.080Z,61.37
2017-05-30T06:47:18.196Z,60.69
2017-05-30T06:48:19.566Z,60.99
2017-05-30T06:49:21.701Z,60.79
2017-05-30T06:50:23.080Z,60.79
2017-05-30T06:51:25.195Z,60.69
2017-05-30T06:52:26.598Z,59.92
2017-05-30T06:53:27.983Z,60.21
2017-05-30T06:54:29.432Z,60.11
2017-05-30T06:55:31.694Z,60.50
2017-05-30T06:56:33.696Z,59.92
2017-05-30T06:57:36.766Z,60.11
2017-05-30T06:58:38.699Z,60.21
2017-05-30T06:59:40.073Z,60.31
2017-05-30T07:00:41.451Z,59.66
2017-05-30T07:01:42.832Z,59.66
2017-05-30T07:02:44.212Z,59.28
2017-05-30T07:03:46.216Z,59.38
2017-05-30T07:04:47.625Z,59.38
2017-05-30T07:05:49.000Z,59.28
2017-05-30T07:06:50.402Z,59.18
2017-05-30T07:07:51.777Z,59.18
2017-05-30T07:08:53.702Z,58.89
2017-05-30T07:09:55.087Z,58.53
2017-05-30T07:10:56.467Z,58.12
2017-05-30T07:11:57.837Z,57.92
2017-05-30T07:12:59.222Z,58.02
2017-05-30T07:14:00.735Z,58.04
2017-05-30T07:15:02.112Z,58.04
2017-05-30T07:16:04.003Z,58.24
2017-05-30T07:17:05.306Z,57.86
2017-05-30T07:18:06.672Z,57.95
2017-05-30T07:19:08.702Z,57.95
2017-05-30T07:20:10.085Z,58.14
2017-05-30T07:21:11.463Z,57.37
2017-05-30T07:22:12.839Z,57.37
2017-05-30T07:23:15.240Z,57.76
2017-05-30T07:24:16.615Z,56.79
2017-05-30T07:25:18.001Z,57.11
2017-05-30T07:26:20.216Z,56.92
2017-05-30T07:27:21.597Z,57.11
2017-05-30T07:28:23.152Z,57.20
2017-05-30T07:29:25.209Z,56.92
2017-05-30T07:30:27.226Z,56.62
2017-05-30T07:31:28.605Z,56.52
2017-05-30T07:32:30.012Z,56.62
2017-05-30T07:33:31.406Z,56.56
2017-05-30T07:34:32.791Z,56.94
2017-05-30T07:35:36.726Z,56.85
2017-05-30T07:36:38.116Z,57.33
2017-05-30T07:37:39.487Z,57.43
2017-05-30T07:38:43.712Z,57.33
2017-05-30T07:39:45.099Z,57.33
2017-05-30T07:40:46.461Z,56.85
2017-05-30T07:41:47.850Z,56.94
2017-05-30T07:42:49.227Z,57.14
2017-05-30T07:43:50.610Z,57.33
2017-05-30T07:44:52.000Z,56.65
2017-05-30T07:45:53.380Z,56.46
2017-05-30T07:46:54.756Z,55.30
2017-05-30T07:47:56.135Z,55.40
2017-05-30T07:48:57.504Z,55.58
2017-05-30T07:49:58.901Z,55.78
2017-05-30T07:51:00.323Z,55.52
2017-05-30T07:52:01.709Z,55.78
2017-05-30T07:53:03.147Z,55.68
2017-05-30T07:54:04.717Z,55.40
2017-05-30T07:55:06.098Z,55.49
2017-05-30T07:56:07.545Z,55.40
2017-05-30T07:57:08.923Z,55.62
2017-05-30T07:58:10.317Z,55.52
2017-05-30T07:59:11.703Z,55.22
2017-05-30T08:00:13.104Z,55.13
2017-05-30T08:01:15.290Z,55.52
2017-05-30T08:02:16.665Z,55.62
2017-05-30T08:03:18.052Z,54.74
2017-05-30T08:04:19.432Z,54.35
2017-05-30T08:05:20.825Z,54.35
2017-05-30T08:06:22.217Z,54.45
2017-05-30T08:07:23.594Z,54.26
2017-05-30T08:08:25.010Z,54.45
2017-05-30T08:09:26.393Z,54.16
2017-05-30T08:10:27.841Z,54.77
2017-05-30T08:11:29.274Z,54.28
2017-05-30T08:12:30.613Z,53.89
2017-05-30T08:13:32.718Z,53.99
2017-05-30T08:14:34.104Z,53.80
2017-05-30T08:15:36.226Z,53.61
2017-05-30T08:16:38.218Z,53.70
2017-05-30T08:17:39.587Z,53.12
2017-05-30T08:18:41.726Z,53.70
2017-05-30T08:19:43.096Z,53.80
2017-05-30T08:20:44.516Z,53.02
2017-05-30T08:21:45.879Z,52.73
2017-05-30T08:22:47.448Z,52.54
2017-05-30T08:23:48.824Z,52.93
2017-05-30T08:24:51.719Z,52.83
2017-05-30T08:25:53.131Z,52.86
2017-05-30T08:26:55.236Z,52.76
2017-05-30T08:27:57.224Z,52.95
2017-05-30T08:28:59.228Z,52.56
2017-05-30T08:30:01.225Z,52.66
2017-05-30T08:31:02.618Z,53.44
2017-05-30T08:32:04.001Z,53.34
2017-05-30T08:33:05.373Z,53.44
2017-05-30T08:34:08.728Z,53.53
2017-05-30T08:35:10.736Z,53.83
2017-05-30T08:36:12.123Z,53.24
2017-05-30T08:37:13.495Z,52.50
2017-05-30T08:38:14.882Z,51.81
2017-05-30T08:39:16.351Z,51.81
2017-05-30T08:40:18.232Z,51.91
2017-05-30T08:41:19.661Z,51.43
2017-05-30T08:42:21.048Z,50.65
2017-05-30T08:43:23.230Z,50.74
2017-05-30T08:44:24.608Z,50.65
2017-05-30T08:45:25.989Z,49.97
2017-05-30T08:46:27.363Z,49.39
2017-05-30T08:47:28.743Z,48.80
2017-05-30T08:48:30.150Z,48.42
2017-05-30T08:49:31.530Z,48.64
2017-05-30T08:50:33.725Z,48.13
2017-05-30T08:51:35.126Z,48.15
2017-05-30T08:52:36.520Z,48.15
2017-05-30T08:53:37.903Z,48.05
2017-05-30T08:54:39.385Z,48.15
2017-05-30T08:55:40.781Z,48.05
2017-05-30T08:56:42.166Z,48.05
2017-05-30T08:57:43.562Z,48.25
2017-05-30T08:58:44.945Z,48.05
2017-05-30T08:59:47.227Z,48.05
2017-05-30T09:00:48.631Z,46.98
2017-05-30T09:01:50.018Z,47.11
2017-05-30T09:02:51.401Z,46.62
2017-05-30T09:03:52.815Z,46.91
2017-05-30T09:04:54.201Z,46.72
2017-05-30T09:05:55.591Z,47.01
2017-05-30T09:06:56.981Z,47.11
2017-05-30T09:07:58.404Z,47.30
2017-05-30T09:08:59.800Z,47.88
2017-05-30T09:10:01.178Z,48.08
2017-05-30T09:11:02.566Z,47.30
2017-05-30T09:12:03.934Z,47.13
2017-05-30T09:13:06.258Z,47.88
2017-05-30T09:14:07.686Z,48.47
2017-05-30T09:15:09.067Z,49.54
2017-05-30T09:16:10.457Z,48.75
2017-05-30T09:17:11.863Z,47.88
2017-05-30T09:18:13.237Z,47.81
2017-05-30T09:19:14.711Z,47.98
2017-05-30T09:20:16.097Z,48.20
2017-05-30T09:21:17.478Z,48.49
2017-05-30T09:22:18.877Z,48.30
2017-05-30T09:23:20.253Z,48.30
2017-05-30T09:24:21.647Z,48.30
2017-05-30T09:25:23.770Z,48.30
2017-05-30T09:26:25.149Z,48.20
2017-05-30T09:27:26.573Z,48.20
2017-05-30T09:28:30.745Z,48.13
2017-05-30T09:29:32.150Z,48.30
2017-05-30T09:30:33.547Z,48.00
2017-05-30T09:31:34.935Z,48.20
2017-05-30T09:32:36.362Z,47.91
2017-05-30T09:33:37.757Z,48.22
2017-05-30T09:34:39.139Z,48.13
2017-05-30T09:35:40.550Z,47.91
2017-05-30T09:36:41.934Z,47.64
2017-05-30T09:37:43.316Z,46.96
2017-05-30T09:38:44.738Z,45.79
2017-05-30T09:39:46.136Z,44.70
2017-05-30T09:40:47.588Z,45.21
2017-05-30T09:41:48.973Z,45.89
2017-05-30T09:42:50.364Z,45.79
2017-05-30T09:43:51.741Z,45.69
2017-05-30T09:44:55.786Z,45.79
2017-05-30T09:45:57.766Z,45.01
2017-05-30T09:46:59.187Z,45.01
2017-05-30T09:48:00.563Z,45.31
2017-05-30T09:49:01.969Z,45.01
2017-05-30T09:50:03.334Z,44.74
2017-05-30T09:51:04.723Z,44.16
2017-05-30T09:52:06.101Z,43.96
2017-05-30T09:53:07.485Z,44.14
2017-05-30T09:54:08.869Z,44.06
2017-05-30T09:55:10.243Z,44.06
2017-05-30T09:56:11.622Z,43.58
2017-05-30T09:57:12.994Z,43.19
2017-05-30T09:58:14.375Z,42.60
2017-05-30T09:59:15.762Z,42.21
2017-05-30T10:00:17.138Z,42.21
2017-05-30T10:01:20.294Z,42.33
2017-05-30T10:02:21.677Z,42.24
2017-05-30T10:03:23.068Z,41.94
2017-05-30T10:04:25.250Z,41.36
2017-05-30T10:05:26.633Z,41.36
2017-05-30T10:06:28.058Z,40.29
2017-05-30T10:07:31.246Z,40.00
2017-05-30T10:08:32.720Z,39.90
2017-05-30T10:09:34.053Z,40.09
2017-05-30T10:10:35.439Z,39.98
2017-05-30T10:11:36.813Z,40.39
2017-05-30T10:12:38.789Z,39.88
2017-05-30T10:13:40.162Z,39.41
2017-05-30T10:14:41.549Z,39.12
2017-05-30T10:15:42.931Z,39.43
2017-05-30T10:16:44.320Z,39.92
2017-05-30T10:17:45.755Z,40.01
2017-05-30T10:18:47.129Z,40.00
2017-05-30T10:19:49.269Z,40.00
2017-05-30T10:20:50.654Z,39.61
2017-05-30T10:21:52.250Z,39.43
2017-05-30T10:22:53.640Z,38.75
2017-05-30T10:23:55.034Z,39.04
2017-05-30T10:24:56.518Z,39.43
2017-05-30T10:25:57.911Z,39.82
2017-05-30T10:26:59.321Z,39.72
2017-05-30T10:28:00.792Z,39.92
2017-05-30T10:29:02.201Z,40.31
2017-05-30T10:30:03.626Z,39.82
2017-05-30T10:31:04.978Z,40.31
2017-05-30T10:32:06.348Z,40.89
2017-05-30T10:33:08.268Z,41.09
2017-05-30T10:34:09.647Z,40.99
2017-05-30T10:35:11.026Z,41.50
2017-05-30T10:36:12.423Z,41.30
2017-05-30T10:37:13.811Z,41.11
2017-05-30T10:38:15.183Z,41.11
2017-05-30T10:39:16.559Z,41.20
2017-05-30T10:40:17.940Z,41.40
2017-05-30T10:41:19.335Z,41.77
2017-05-30T10:42:20.717Z,41.57
2017-05-30T10:43:22.139Z,41.57
2017-05-30T10:44:23.517Z,41.48
2017-05-30T10:45:24.905Z,41.30
2017-05-30T10:46:26.288Z,41.20
2017-05-30T10:47:27.671Z,41.50
2017-05-30T10:48:29.044Z,41.60
2017-05-30T10:49:31.271Z,41.50
2017-05-30T10:50:33.267Z,40.91
2017-05-30T10:51:34.645Z,40.93
2017-05-30T10:52:36.022Z,40.35
2017-05-30T10:53:37.401Z,40.64
2017-05-30T10:54:38.778Z,40.64
2017-05-30T10:55:40.192Z,40.72
2017-05-30T10:56:41.595Z,41.20
2017-05-30T10:57:42.993Z,41.40
2017-05-30T10:58:44.401Z,41.30
2017-05-30T10:59:45.777Z,41.89
2017-05-30T11:00:47.158Z,41.52
2017-05-30T11:01:48.534Z,41.52
2017-05-30T11:02:50.787Z,41.11
2017-05-30T11:03:53.771Z,41.50
2017-05-30T11:04:55.155Z,41.30
2017-05-30T11:05:56.546Z,41.22
2017-05-30T11:06:57.933Z,41.22
2017-05-30T11:07:59.316Z,41.42
2017-05-30T11:09:00.701Z,41.22
2017-05-30T11:10:02.781Z,41.42
2017-05-30T11:11:04.161Z,41.71
2017-05-30T11:12:05.558Z,41.13
2017-05-30T11:13:06.938Z,41.22
2017-05-30T11:14:08.320Z,41.13
2017-05-30T11:15:09.881Z,40.45
2017-05-30T11:16:11.260Z,40.66
2017-05-30T11:17:12.666Z,40.56
2017-05-30T11:18:14.044Z,40.47
2017-05-30T11:19:16.278Z,39.78
2017-05-30T11:20:17.654Z,39.59
2017-05-30T11:21:19.043Z,39.49
2017-05-30T11:22:20.454Z,39.39
2017-05-30T11:23:22.783Z,39.29
2017-05-30T11:24:24.178Z,39.10
2017-05-30T11:25:25.558Z,38.90
2017-05-30T11:26:27.029Z,39.18
2017-05-30T11:27:28.418Z,39.76
2017-05-30T11:28:29.791Z,40.47
2017-05-30T11:29:31.164Z,40.27
2017-05-30T11:30:32.567Z,39.98
2017-05-30T11:31:33.929Z,40.08
2017-05-30T11:32:35.334Z,40.09
2017-05-30T11:33:36.714Z,39.80
2017-05-30T11:34:38.094Z,39.61
2017-05-30T11:35:39.491Z,39.59
2017-05-30T11:36:40.874Z,39.70
2017-05-30T11:37:42.245Z,39.61
2017-05-30T11:38:43.619Z,39.61
2017-05-30T11:39:45.008Z,39.78
2017-05-30T11:40:46.388Z,39.61
2017-05-30T11:41:47.774Z,39.31
2017-05-30T11:42:50.789Z,38.71
2017-05-30T11:43:52.162Z,38.53
2017-05-30T11:44:53.538Z,38.53
2017-05-30T11:45:54.938Z,38.43
2017-05-30T11:46:56.331Z,38.53
2017-05-30T11:47:57.711Z,38.73
2017-05-30T11:48:59.155Z,38.24
2017-05-30T11:50:00.538Z,38.14
2017-05-30T11:51:01.909Z,38.14
2017-05-30T11:52:03.295Z,38.12
2017-05-30T11:53:04.674Z,38.02
2017-05-30T11:54:06.052Z,37.95
2017-05-30T11:55:07.435Z,38.73
2017-05-30T11:56:08.815Z,38.61
2017-05-30T11:57:10.200Z,38.71
2017-05-30T11:58:11.579Z,38.42
2017-05-30T11:59:13.794Z,38.73
2017-05-30T12:00:15.177Z,38.82
2017-05-30T12:01:16.557Z,38.73
2017-05-30T12:02:17.938Z,38.63
2017-05-30T12:03:19.321Z,38.34
2017-05-30T12:04:20.706Z,38.45
2017-05-30T12:05:22.791Z,38.55
2017-05-30T12:06:24.796Z,38.43
2017-05-30T12:07:26.192Z,38.35
2017-05-30T12:08:27.579Z,38.43
2017-05-30T12:09:29.829Z,38.04
2017-05-30T12:10:31.218Z,38.34
2017-05-30T12:11:32.685Z,38.04
2017-05-30T12:12:35.080Z,37.46
2017-05-30T12:13:36.463Z,37.75
2017-05-30T12:14:37.840Z,38.04
2017-05-30T12:15:39.233Z,38.34
2017-05-30T12:16:40.621Z,38.63
2017-05-30T12:17:43.331Z,39.02
2017-05-30T12:18:44.067Z,38.82
2017-05-30T12:19:45.446Z,38.92
2017-05-30T12:20:47.798Z,38.94
2017-05-30T12:21:49.192Z,38.45
2017-05-30T12:22:50.572Z,38.65
2017-05-30T12:23:52.024Z,38.65
2017-05-30T12:24:53.413Z,38.35
2017-05-30T12:25:54.800Z,37.87
2017-05-30T12:26:56.190Z,37.38
2017-05-30T12:27:58.301Z,37.38
2017-05-30T12:28:59.677Z,38.06
2017-05-30T12:30:01.778Z,38.26
2017-05-30T12:31:03.837Z,37.95
2017-05-30T12:32:04.499Z,37.55
2017-05-30T12:33:05.870Z,37.95
2017-05-30T12:34:07.811Z,37.95
2017-05-30T12:35:09.249Z,37.95
2017-05-30T12:36:10.633Z,37.38
2017-05-30T12:37:12.026Z,37.87
2017-05-30T12:38:13.429Z,37.09
2017-05-30T12:39:14.843Z,36.99
2017-05-30T12:40:16.829Z,36.51
2017-05-30T12:41:18.211Z,36.70
2017-05-30T12:42:19.591Z,36.11
2017-05-30T12:43:20.982Z,36.41
2017-05-30T12:44:22.360Z,35.92
2017-05-30T12:45:23.741Z,36.11
2017-05-30T12:46:25.128Z,36.02
2017-05-30T12:47:26.508Z,35.82
2017-05-30T12:48:27.917Z,36.11
2017-05-30T12:49:29.295Z,36.31
2017-05-30T12:50:30.672Z,36.11
2017-05-30T12:51:32.822Z,36.02
2017-05-30T12:52:34.220Z,36.80
2017-05-30T12:53:35.665Z,36.91
2017-05-30T12:54:37.154Z,37.11
2017-05-30T12:55:38.539Z,35.94
2017-05-30T12:56:39.914Z,36.33
2017-05-30T12:57:41.301Z,35.94
2017-05-30T12:58:42.680Z,35.94
2017-05-30T12:59:45.805Z,36.04
2017-05-30T13:00:47.191Z,35.45
2017-05-30T13:01:48.568Z,34.38
2017-05-30T13:02:49.954Z,33.50
2017-05-30T13:03:52.323Z,33.11
2017-05-30T13:04:53.695Z,34.38
2017-05-30T13:05:55.830Z,35.84
2017-05-30T13:06:57.215Z,35.94
2017-05-30T13:07:58.596Z,35.74
2017-05-30T13:09:00.004Z,35.66
2017-05-30T13:10:01.382Z,35.46
2017-05-30T13:11:02.766Z,34.39
2017-05-30T13:12:04.143Z,34.58